Home   Weather   Wederath   Past weeks
Flag for Germany

Past Weather in Wederath, Rhineland-Palatinate, Germany — October 2021

Currently: 61 °F. Sunny. (Weather station: Hahn, Germany). See more current weather

October 2021 Weather in Wederath — Graph

°F

High & Low Weather Summary for October 2021

 TemperatureHumidityPressure
High64 °F (Oct 3, 1:20 pm)100% (Oct 2, 9:20 am)30.42 "Hg (Oct 2, 9:20 am)
Low34 °F (Oct 24, 5:20 am)42% (Oct 9, 4:20 pm)29.39 "Hg (Oct 21, 4:50 am)
Average48 °F89%30.08 "Hg
* Reported Oct 1 12:20 am — Oct 31 11:50 pm, Wederath. Weather by CustomWeather, © 2022

Note: Actual official high and low records may vary slightly from our data, if they occured in-between our weather recording intervals... More about our weather records

Wederath Weather History for October 1, 2021

Scroll right to see more
 ConditionsComfort  
Time TempWeatherWind HumidityBarometerVisibility
12:20 am
Fri, Oct 1
46 °FClear.7 mph87%30.24 "Hg10 mi
12:50 am45 °FClear.6 mph87%30.24 "Hg10 mi
1:20 am45 °FClear.7 mph87%30.21 "Hg10 mi
1:50 am45 °FClear.8 mph87%30.21 "Hg10 mi
2:20 am45 °FClear.9 mph81%30.21 "Hg10 mi
2:50 am45 °FClear.9 mph81%30.21 "Hg10 mi
3:20 am45 °FClear.8 mph81%30.18 "Hg10 mi
3:50 am45 °FClear.8 mph76%30.18 "Hg10 mi
4:20 am43 °FClear.9 mph87%30.18 "Hg10 mi
4:50 am41 °FClear.12 mph93%30.15 "Hg10 mi
5:20 am43 °FClear.10 mph81%30.15 "Hg10 mi
5:50 am43 °FClear.12 mph87%30.15 "Hg10 mi
6:20 am41 °FClear.10 mph93%30.15 "Hg10 mi
6:50 am41 °FClear.10 mph87%30.15 "Hg10 mi
7:20 am41 °FClear.10 mph93%30.12 "Hg10 mi
7:50 am41 °FSunny.10 mph93%30.12 "Hg10 mi
8:20 am41 °FSunny.12 mph93%30.12 "Hg10 mi
8:50 am43 °FSunny.9 mph87%30.12 "Hg10 mi
9:20 am45 °FSunny.8 mph87%30.12 "Hg10 mi
9:50 am50 °FPassing clouds.7 mph71%30.12 "HgN/A
10:20 am52 °FSunny.8 mph72%30.12 "Hg10 mi
10:50 am54 °FSunny.12 mph67%30.12 "Hg10 mi
11:20 am55 °FPassing clouds.9 mph63%30.12 "HgN/A
11:50 am57 °FPassing clouds.9 mph59%30.12 "HgN/A
12:20 pm59 °FPassing clouds.9 mph51%30.09 "HgN/A
12:50 pm59 °FPassing clouds.12 mph55%30.09 "HgN/A
1:20 pm59 °FPassing clouds.15 mph51%30.09 "HgN/A
1:50 pm59 °FSunny.14 mph48%30.07 "Hg10 mi
2:20 pm61 °FSunny.13 mph45%30.07 "Hg10 mi
2:50 pm61 °FPassing clouds.10 mph48%30.07 "HgN/A
3:20 pm61 °FPassing clouds.9 mph45%30.04 "HgN/A
3:50 pm61 °FPassing clouds.9 mph48%30.04 "HgN/A
4:20 pm61 °FSunny.12 mph48%30.04 "Hg10 mi
4:50 pm59 °FPassing clouds.8 mph51%30.04 "HgN/A
5:20 pm59 °FSunny.7 mph55%30.04 "Hg10 mi
5:50 pm57 °FSunny.7 mph59%30.04 "Hg10 mi
6:20 pm55 °FSunny.6 mph67%30.01 "Hg10 mi
6:50 pm55 °FSunny.7 mph63%30.01 "Hg10 mi
7:20 pm54 °FClear.7 mph67%30.01 "Hg10 mi
7:50 pm54 °FClear.9 mph67%30.01 "Hg10 mi
8:20 pm54 °FClear.12 mph67%30.01 "Hg10 mi
8:50 pm52 °FClear.10 mph72%30.01 "Hg10 mi
9:20 pm52 °FClear.9 mph77%30.01 "Hg10 mi
9:50 pm52 °FClear.9 mph77%30.01 "Hg10 mi
10:20 pm54 °FClear.9 mph72%30.01 "Hg10 mi
11:20 pm52 °FClear.9 mph77%30.01 "Hg10 mi
11:50 pm54 °FPassing clouds.9 mph72%30.01 "HgN/A
Weather by CustomWeather, © 2022

See weather overview